createdAt,value
2023-02-11T00:01:32.457Z,8.60
2023-02-11T00:04:01.760Z,8.59
2023-02-11T00:06:33.112Z,8.60
2023-02-11T00:09:01.987Z,8.63
2023-02-11T00:11:30.841Z,8.63
2023-02-11T00:14:05.898Z,8.66
2023-02-11T00:16:33.837Z,8.69
2023-02-11T00:19:06.303Z,8.69
2023-02-11T00:21:35.829Z,8.70
2023-02-11T00:24:04.389Z,8.70
2023-02-11T00:26:35.535Z,8.72
2023-02-11T00:29:04.588Z,8.72
2023-02-11T00:31:34.086Z,8.74
2023-02-11T00:34:02.346Z,8.74
2023-02-11T00:36:31.059Z,8.73
2023-02-11T00:39:00.166Z,8.73
2023-02-11T00:41:29.848Z,8.69
2023-02-11T00:44:02.137Z,8.68
2023-02-11T00:46:30.618Z,8.66
2023-02-11T00:48:58.715Z,8.62
2023-02-11T00:51:28.726Z,8.61
2023-02-11T00:53:57.457Z,8.59
2023-02-11T00:56:25.537Z,8.60
2023-02-11T00:58:54.032Z,8.56
2023-02-11T01:01:21.976Z,8.51
2023-02-11T01:03:50.746Z,8.51
2023-02-11T01:06:19.091Z,8.48
2023-02-11T01:08:46.945Z,8.45
2023-02-11T01:11:20.626Z,8.43
2023-02-11T01:13:50.094Z,8.42
2023-02-11T01:16:20.016Z,8.40
2023-02-11T01:18:48.194Z,8.41
2023-02-11T01:21:19.290Z,8.41
2023-02-11T01:23:47.324Z,8.42
2023-02-11T01:26:15.120Z,8.43
2023-02-11T01:28:43.042Z,8.44
2023-02-11T01:31:10.888Z,8.46
2023-02-11T01:33:39.052Z,8.46
2023-02-11T01:36:08.599Z,8.46
2023-02-11T01:38:36.974Z,8.45
2023-02-11T01:41:12.412Z,8.42
2023-02-11T01:43:48.056Z,8.37
2023-02-11T01:46:32.745Z,8.36
2023-02-11T01:49:15.054Z,8.31
2023-02-11T01:51:55.517Z,8.22
2023-02-11T01:54:50.832Z,8.15
2023-02-11T01:57:26.291Z,8.11
2023-02-11T02:00:14.324Z,8.09
2023-02-11T02:03:32.016Z,8.06
2023-02-11T02:06:28.504Z,8.05
2023-02-11T02:09:12.878Z,8.07
2023-02-11T02:11:41.015Z,8.03
2023-02-11T02:14:08.914Z,7.93
2023-02-11T02:16:37.825Z,7.89
2023-02-11T02:19:42.974Z,7.88
2023-02-11T02:23:00.553Z,7.82
2023-02-11T02:25:51.003Z,7.82
2023-02-11T02:29:22.938Z,7.77
2023-02-11T02:32:33.745Z,7.88
2023-02-11T02:35:23.866Z,7.89
2023-02-11T02:38:21.145Z,7.91
2023-02-11T02:40:59.346Z,7.96
2023-02-11T02:43:29.448Z,8.08
2023-02-11T02:46:13.855Z,8.16
2023-02-11T02:48:42.348Z,8.19
2023-02-11T02:51:34.825Z,8.25
2023-02-11T02:54:05.526Z,8.20
2023-02-11T02:56:46.414Z,8.16
2023-02-11T02:59:54.075Z,8.12
2023-02-11T03:02:36.192Z,8.08
2023-02-11T03:05:23.854Z,8.13
2023-02-11T03:08:18.618Z,8.11
2023-02-11T03:10:51.094Z,8.08
2023-02-11T03:13:24.898Z,8.02
2023-02-11T03:15:57.849Z,8.01
2023-02-11T03:18:29.717Z,7.98
2023-02-11T03:20:59.910Z,7.93
2023-02-11T03:23:39.396Z,7.95
2023-02-11T03:27:25.914Z,7.96
2023-02-11T03:30:11.040Z,7.93
2023-02-11T03:32:49.244Z,7.92
2023-02-11T03:35:39.074Z,7.93
2023-02-11T03:38:17.887Z,7.95
2023-02-11T03:40:47.152Z,7.98
2023-02-11T03:43:25.181Z,7.97
2023-02-11T03:45:57.132Z,7.96
2023-02-11T03:48:37.933Z,7.98
2023-02-11T03:51:09.590Z,7.96
2023-02-11T03:53:41.158Z,7.94
2023-02-11T03:56:13.165Z,7.95
2023-02-11T03:58:41.008Z,7.96
2023-02-11T04:01:09.971Z,7.96
2023-02-11T04:03:38.562Z,7.98
2023-02-11T04:06:06.718Z,7.99
2023-02-11T04:08:35.128Z,8.01
2023-02-11T04:11:03.024Z,8.03
2023-02-11T04:13:30.903Z,8.05
2023-02-11T04:15:58.831Z,8.06
2023-02-11T04:18:26.679Z,8.07
2023-02-11T04:20:54.487Z,8.08
2023-02-11T04:23:22.274Z,8.10
2023-02-11T04:25:50.787Z,8.12
2023-02-11T04:28:18.903Z,8.15
2023-02-11T04:30:46.903Z,8.16
2023-02-11T04:33:14.722Z,8.20
2023-02-11T04:35:42.565Z,8.20
2023-02-11T04:38:10.386Z,8.21
2023-02-11T04:40:38.529Z,8.23
2023-02-11T04:43:06.699Z,8.25
2023-02-11T04:45:34.745Z,8.27
2023-02-11T04:48:04.249Z,8.28
2023-02-11T04:50:32.076Z,8.29
2023-02-11T04:52:59.925Z,8.28
2023-02-11T04:55:27.826Z,8.30
2023-02-11T04:57:55.707Z,8.31
2023-02-11T05:00:23.568Z,8.34
2023-02-11T05:02:51.392Z,8.32
2023-02-11T05:05:19.440Z,8.32
2023-02-11T05:07:48.327Z,8.31
2023-02-11T05:10:16.284Z,8.35
2023-02-11T05:12:44.193Z,8.36
2023-02-11T05:15:12.019Z,8.35
2023-02-11T05:17:39.850Z,8.34
2023-02-11T05:20:09.636Z,8.30
2023-02-11T05:22:37.513Z,8.30
2023-02-11T05:25:06.015Z,8.31
2023-02-11T05:27:34.140Z,8.31
2023-02-11T05:30:02.532Z,8.28
2023-02-11T05:32:30.376Z,8.28
2023-02-11T05:34:58.224Z,8.30
2023-02-11T05:37:26.250Z,8.30
2023-02-11T05:39:54.138Z,8.29
2023-02-11T05:42:21.935Z,8.29
2023-02-11T05:44:50.777Z,8.28
2023-02-11T05:47:18.990Z,8.26
2023-02-11T05:49:47.480Z,8.24
2023-02-11T05:52:15.332Z,8.24
2023-02-11T05:54:43.170Z,8.25
2023-02-11T05:57:11.059Z,8.25
2023-02-11T05:59:39.246Z,8.27
2023-02-11T06:02:08.040Z,8.31
2023-02-11T06:04:37.705Z,8.31
2023-02-11T06:07:05.631Z,8.29
2023-02-11T06:09:33.480Z,8.29
2023-02-11T06:12:01.628Z,8.30
2023-02-11T06:14:29.472Z,8.31
2023-02-11T06:16:57.285Z,8.30
2023-02-11T06:19:25.149Z,8.31
2023-02-11T06:21:52.986Z,8.30
2023-02-11T06:24:47.707Z,8.28
2023-02-11T06:27:09.096Z,8.28
2023-02-11T06:29:37.043Z,8.27
2023-02-11T06:32:05.195Z,8.26
2023-02-11T06:34:33.231Z,8.31
2023-02-11T06:37:01.366Z,8.32
2023-02-11T06:39:29.353Z,8.29
2023-02-11T06:41:57.205Z,8.27
2023-02-11T06:44:25.087Z,8.30
2023-02-11T06:46:53.280Z,8.28
2023-02-11T06:49:21.247Z,8.29
2023-02-11T06:51:49.101Z,8.31
2023-02-11T06:54:17.009Z,8.30
2023-02-11T06:56:44.878Z,8.29
2023-02-11T06:59:18.433Z,8.31
2023-02-11T07:01:47.017Z,8.28
2023-02-11T07:04:15.530Z,8.27
2023-02-11T07:06:43.959Z,8.27
2023-02-11T07:09:11.991Z,8.30
2023-02-11T07:11:39.887Z,8.35
2023-02-11T07:14:08.659Z,8.36
2023-02-11T07:16:38.582Z,8.34
2023-02-11T07:19:06.461Z,8.36
2023-02-11T07:21:35.322Z,8.35
2023-02-11T07:24:10.879Z,8.36
2023-02-11T07:26:39.279Z,8.38
2023-02-11T07:29:07.086Z,8.36
2023-02-11T07:31:35.364Z,8.37
2023-02-11T07:34:03.615Z,8.39
2023-02-11T07:36:32.717Z,8.42
2023-02-11T07:39:00.849Z,8.43
2023-02-11T07:41:28.877Z,8.39
2023-02-11T07:43:56.850Z,8.41
2023-02-11T07:46:27.850Z,8.44
2023-02-11T07:48:56.238Z,8.50
2023-02-11T07:51:29.934Z,8.55
2023-02-11T07:54:00.327Z,8.63
2023-02-11T07:56:30.216Z,8.67
2023-02-11T07:59:03.477Z,8.64
2023-02-11T08:01:31.811Z,8.65
2023-02-11T08:04:02.261Z,8.66
2023-02-11T08:06:33.627Z,8.75
2023-02-11T08:09:08.900Z,8.84
2023-02-11T08:11:37.177Z,8.91
2023-02-11T08:14:05.256Z,8.94
2023-02-11T08:16:39.112Z,8.90
2023-02-11T08:19:16.862Z,8.89
2023-02-11T08:21:44.953Z,8.97
2023-02-11T08:24:14.820Z,8.98
2023-02-11T08:26:44.129Z,8.95
2023-02-11T08:29:15.844Z,8.93
2023-02-11T08:31:48.925Z,8.95
2023-02-11T08:34:20.048Z,8.98
2023-02-11T08:36:48.910Z,8.99
2023-02-11T08:39:21.225Z,8.98
2023-02-11T08:41:53.709Z,9.03
2023-02-11T08:44:23.471Z,9.05
2023-02-11T08:46:51.990Z,9.07
2023-02-11T08:49:21.137Z,9.07
2023-02-11T08:51:49.765Z,9.06
2023-02-11T08:54:18.208Z,9.06
2023-02-11T08:56:46.099Z,9.13
2023-02-11T08:59:15.474Z,9.16
2023-02-11T09:01:44.437Z,9.20
2023-02-11T09:04:13.033Z,9.23
2023-02-11T09:06:41.326Z,9.29
2023-02-11T09:09:13.852Z,9.31
2023-02-11T09:11:44.375Z,9.32
2023-02-11T09:14:20.013Z,9.36
2023-02-11T09:16:49.460Z,9.39
2023-02-11T09:19:18.307Z,9.39
2023-02-11T09:21:46.838Z,9.47
2023-02-11T09:24:15.601Z,9.52
2023-02-11T09:26:43.652Z,9.60
2023-02-11T09:29:11.952Z,9.69
2023-02-11T09:31:40.051Z,9.72
2023-02-11T09:34:08.814Z,9.76
2023-02-11T09:36:40.299Z,9.84
2023-02-11T09:39:12.764Z,9.90
2023-02-11T09:42:20.549Z,9.88
2023-02-11T09:44:49.096Z,9.86
2023-02-11T09:47:30.982Z,9.89
2023-02-11T09:50:10.614Z,9.94
2023-02-11T09:52:56.544Z,9.95
2023-02-11T09:55:43.075Z,9.98
2023-02-11T09:58:22.878Z,10.02
2023-02-11T10:00:53.456Z,10.04
2023-02-11T10:04:03.572Z,10.13
2023-02-11T10:06:49.028Z,10.19
2023-02-11T10:09:54.609Z,10.17
2023-02-11T10:12:47.285Z,10.18
2023-02-11T10:15:30.191Z,10.19
2023-02-11T10:18:39.206Z,10.19
2023-02-11T10:21:19.708Z,10.20
2023-02-11T10:23:55.811Z,10.23
2023-02-11T10:26:24.088Z,10.27
2023-02-11T10:28:55.543Z,10.36
2023-02-11T10:31:38.330Z,10.47
2023-02-11T10:34:11.186Z,10.53
2023-02-11T10:36:44.047Z,10.56
2023-02-11T10:39:23.820Z,10.59
2023-02-11T10:41:59.326Z,10.66
2023-02-11T10:44:33.586Z,10.72
2023-02-11T10:47:22.622Z,10.70
2023-02-11T10:49:50.741Z,10.75
2023-02-11T10:52:24.858Z,10.79
2023-02-11T10:55:23.062Z,10.84
2023-02-11T10:58:00.584Z,10.91
2023-02-11T11:00:32.430Z,11.03
2023-02-11T11:03:02.011Z,11.09
2023-02-11T11:05:50.581Z,11.11
2023-02-11T11:08:19.959Z,11.16
2023-02-11T11:11:04.153Z,11.19
2023-02-11T11:13:36.420Z,11.17
2023-02-11T11:16:13.435Z,11.20
2023-02-11T11:18:44.881Z,11.25
2023-02-11T11:21:18.065Z,11.29
2023-02-11T11:24:04.799Z,11.41
2023-02-11T11:26:47.332Z,11.41
2023-02-11T11:29:56.959Z,11.37
2023-02-11T11:32:33.944Z,11.41
2023-02-11T11:35:10.074Z,11.36
2023-02-11T11:37:39.289Z,11.29
2023-02-11T11:40:13.460Z,11.30
2023-02-11T11:42:41.703Z,11.32
2023-02-11T11:45:15.763Z,11.36
2023-02-11T11:48:14.024Z,11.42
2023-02-11T11:50:53.096Z,11.34
2023-02-11T11:53:29.204Z,11.31
2023-02-11T11:56:07.634Z,11.30
2023-02-11T11:58:36.031Z,11.37
2023-02-11T12:02:11.819Z,11.40
2023-02-11T12:05:20.671Z,11.36
2023-02-11T12:08:07.708Z,11.38
2023-02-11T12:11:00.160Z,11.45
2023-02-11T12:13:57.668Z,11.41
2023-02-11T12:16:43.646Z,11.37
2023-02-11T12:19:21.587Z,11.35
2023-02-11T12:22:42.586Z,11.40
2023-02-11T12:25:30.934Z,11.37
2023-02-11T12:28:06.120Z,11.28
2023-02-11T12:31:06.689Z,11.19
2023-02-11T12:33:44.851Z,11.13
2023-02-11T12:36:46.690Z,11.10
2023-02-11T12:39:33.974Z,11.09
2023-02-11T12:42:42.020Z,11.09
2023-02-11T12:45:12.902Z,11.15
2023-02-11T12:48:23.769Z,11.18
2023-02-11T12:51:19.733Z,11.17
2023-02-11T12:54:03.771Z,11.13
2023-02-11T12:56:49.737Z,11.14
2023-02-11T12:59:50.202Z,11.23
2023-02-11T13:02:54.385Z,11.24
2023-02-11T13:05:43.677Z,11.17
2023-02-11T13:08:17.984Z,11.23
2023-02-11T13:10:55.633Z,11.25
2023-02-11T13:13:35.738Z,11.22
2023-02-11T13:16:07.968Z,11.23
2023-02-11T13:18:57.491Z,11.24
2023-02-11T13:21:45.682Z,11.24
2023-02-11T13:24:38.091Z,11.24
2023-02-11T13:27:23.809Z,11.18
2023-02-11T13:30:28.601Z,11.14
2023-02-11T13:32:56.710Z,11.12
2023-02-11T13:35:44.298Z,11.12
2023-02-11T13:38:24.060Z,11.13
2023-02-11T13:41:16.607Z,11.10
2023-02-11T13:43:58.235Z,11.04
2023-02-11T13:46:30.264Z,10.97
2023-02-11T13:48:58.508Z,10.96
2023-02-11T13:51:40.646Z,10.99
2023-02-11T13:54:23.756Z,11.04
2023-02-11T13:57:19.383Z,11.04
2023-02-11T13:59:55.035Z,11.00
2023-02-11T14:02:57.034Z,10.99
2023-02-11T14:05:51.955Z,11.01
2023-02-11T14:08:44.436Z,10.98
2023-02-11T14:11:25.229Z,10.96
2023-02-11T14:13:53.111Z,10.99
2023-02-11T14:16:37.068Z,10.98
2023-02-11T14:19:08.594Z,11.04
2023-02-11T14:21:44.526Z,11.03
2023-02-11T14:24:12.966Z,11.02
2023-02-11T14:27:01.884Z,11.02
2023-02-11T14:29:44.988Z,11.03
2023-02-11T14:32:42.334Z,10.99
2023-02-11T14:35:28.901Z,11.02
2023-02-11T14:38:24.489Z,10.99
2023-02-11T14:41:19.256Z,10.95
2023-02-11T14:43:53.743Z,10.94
2023-02-11T14:46:25.463Z,10.91
2023-02-11T14:48:58.340Z,10.89
2023-02-11T14:51:34.922Z,10.86
2023-02-11T14:54:23.538Z,10.83
2023-02-11T14:57:16.484Z,10.81
2023-02-11T15:00:21.667Z,10.84
2023-02-11T15:02:49.633Z,10.87
2023-02-11T15:05:20.392Z,10.89
2023-02-11T15:07:59.948Z,10.90
2023-02-11T15:10:36.349Z,10.94
2023-02-11T15:13:05.751Z,10.94
2023-02-11T15:15:36.515Z,10.92
2023-02-11T15:18:05.592Z,10.92
2023-02-11T15:20:35.838Z,10.94
2023-02-11T15:23:13.245Z,10.99
2023-02-11T15:25:51.156Z,11.06
2023-02-11T15:28:30.368Z,11.07
2023-02-11T15:31:13.491Z,11.05
2023-02-11T15:33:41.761Z,11.05
2023-02-11T15:36:12.766Z,11.06
2023-02-11T15:38:41.131Z,11.19
2023-02-11T15:41:38.301Z,11.23
2023-02-11T15:44:06.118Z,11.15
2023-02-11T15:46:39.843Z,11.16
2023-02-11T15:49:19.255Z,11.12
2023-02-11T15:51:47.830Z,11.07
2023-02-11T15:54:21.783Z,11.03
2023-02-11T15:56:52.768Z,10.98
2023-02-11T15:59:40.554Z,10.98
2023-02-11T16:02:31.976Z,11.04
2023-02-11T16:05:06.237Z,11.09
2023-02-11T16:07:49.948Z,11.15
2023-02-11T16:10:23.799Z,11.11
2023-02-11T16:13:11.794Z,11.14
2023-02-11T16:15:54.842Z,11.21
2023-02-11T16:18:52.118Z,11.20
2023-02-11T16:21:39.161Z,11.19
2023-02-11T16:24:21.497Z,11.18
2023-02-11T16:26:54.342Z,11.14
2023-02-11T16:29:32.229Z,11.06
2023-02-11T16:32:27.234Z,11.04
2023-02-11T16:34:59.386Z,11.21
2023-02-11T16:37:28.238Z,11.25
2023-02-11T16:39:58.258Z,11.14
2023-02-11T16:42:26.253Z,11.07
2023-02-11T16:44:54.129Z,11.06
2023-02-11T16:47:28.686Z,11.04
2023-02-11T16:49:58.725Z,11.01
2023-02-11T16:52:31.353Z,10.95
2023-02-11T16:54:59.631Z,10.95
2023-02-11T16:57:30.200Z,10.94
2023-02-11T17:00:00.149Z,10.98
2023-02-11T17:02:37.174Z,10.95
2023-02-11T17:05:08.851Z,10.85
2023-02-11T17:07:36.689Z,10.78
2023-02-11T17:10:27.000Z,10.82
2023-02-11T17:12:54.793Z,10.75
2023-02-11T17:15:22.934Z,10.72
2023-02-11T17:17:50.766Z,10.72
2023-02-11T17:20:18.929Z,10.70
2023-02-11T17:22:46.718Z,10.71
2023-02-11T17:25:14.552Z,10.55
2023-02-11T17:27:42.888Z,10.41
2023-02-11T17:30:14.054Z,10.36
2023-02-11T17:32:41.924Z,10.26
2023-02-11T17:35:09.796Z,10.20
2023-02-11T17:37:37.986Z,10.12
2023-02-11T17:40:08.258Z,10.10
2023-02-11T17:42:36.128Z,10.12
2023-02-11T17:45:04.289Z,10.07
2023-02-11T17:47:34.637Z,10.01
2023-02-11T17:50:03.973Z,9.92
2023-02-11T17:52:32.054Z,9.83
2023-02-11T17:55:00.168Z,9.82
2023-02-11T17:57:28.730Z,9.87
2023-02-11T17:59:56.817Z,9.87
2023-02-11T18:02:24.687Z,9.83
2023-02-11T18:04:53.368Z,9.80
2023-02-11T18:07:21.763Z,9.80
2023-02-11T18:09:49.683Z,9.84
2023-02-11T18:12:26.146Z,9.91
2023-02-11T18:14:57.538Z,9.89
2023-02-11T18:17:26.267Z,9.84
2023-02-11T18:19:58.189Z,9.82
2023-02-11T18:22:27.057Z,9.77
2023-02-11T18:24:55.518Z,9.67
2023-02-11T18:27:23.415Z,9.64
2023-02-11T18:29:51.317Z,9.60
2023-02-11T18:32:19.204Z,9.59
2023-02-11T18:34:47.142Z,9.63
2023-02-11T18:37:16.404Z,9.70
2023-02-11T18:39:44.289Z,9.70
2023-02-11T18:42:12.329Z,9.56
2023-02-11T18:44:40.466Z,9.40
2023-02-11T18:47:08.483Z,9.35
2023-02-11T18:49:36.385Z,9.34
2023-02-11T18:52:04.699Z,9.33
2023-02-11T18:54:32.725Z,9.37
2023-02-11T18:57:00.572Z,9.33
2023-02-11T18:59:29.102Z,9.28
2023-02-11T19:01:56.917Z,9.26
2023-02-11T19:04:25.106Z,9.35
2023-02-11T19:06:53.025Z,9.35
2023-02-11T19:09:21.286Z,9.29
2023-02-11T19:11:53.918Z,9.28
2023-02-11T19:14:29.730Z,9.34
2023-02-11T19:17:01.290Z,9.40
2023-02-11T19:19:32.777Z,9.37
2023-02-11T19:22:02.614Z,9.35
2023-02-11T19:24:30.898Z,9.36
2023-02-11T19:27:02.860Z,9.26
2023-02-11T19:29:33.469Z,9.11
2023-02-11T19:32:05.798Z,9.03
2023-02-11T19:34:41.066Z,9.03
2023-02-11T19:37:12.702Z,9.11
2023-02-11T19:39:42.721Z,9.20
2023-02-11T19:42:12.238Z,9.15
2023-02-11T19:44:40.216Z,9.03
2023-02-11T19:47:10.248Z,8.99
2023-02-11T19:49:38.113Z,9.04
2023-02-11T19:52:05.951Z,9.00
2023-02-11T19:54:33.813Z,8.88
2023-02-11T19:57:01.832Z,8.79
2023-02-11T19:59:29.728Z,8.75
2023-02-11T20:01:57.716Z,8.83
2023-02-11T20:04:25.707Z,8.86
2023-02-11T20:06:53.799Z,8.89
2023-02-11T20:09:22.754Z,8.90
2023-02-11T20:11:50.637Z,8.93
2023-02-11T20:14:19.159Z,8.89
2023-02-11T20:16:49.827Z,8.86
2023-02-11T20:19:21.935Z,8.90
2023-02-11T20:21:53.774Z,8.95
2023-02-11T20:24:23.493Z,9.01
2023-02-11T20:26:55.380Z,9.04
2023-02-11T20:29:24.742Z,8.88
2023-02-11T20:31:53.236Z,8.87
2023-02-11T20:34:22.059Z,8.86
2023-02-11T20:36:52.940Z,8.90
2023-02-11T20:39:23.568Z,8.94
2023-02-11T20:41:53.299Z,8.96
2023-02-11T20:44:22.305Z,8.96
2023-02-11T20:46:52.089Z,8.96
2023-02-11T20:49:23.987Z,8.98
2023-02-11T20:51:53.780Z,9.00
2023-02-11T20:54:24.111Z,9.05
2023-02-11T20:56:55.402Z,9.19
2023-02-11T20:59:23.753Z,9.21
2023-02-11T21:01:55.796Z,9.17
2023-02-11T21:04:30.331Z,9.23
2023-02-11T21:07:01.706Z,9.27
2023-02-11T21:09:33.223Z,9.21
2023-02-11T21:12:01.892Z,9.23
2023-02-11T21:14:30.401Z,9.19
2023-02-11T21:16:58.395Z,9.13
2023-02-11T21:19:26.655Z,9.17
2023-02-11T21:21:55.307Z,9.22
2023-02-11T21:24:23.813Z,9.06
2023-02-11T21:26:51.669Z,9.01
2023-02-11T21:29:19.481Z,8.91
2023-02-11T21:31:47.627Z,9.01
2023-02-11T21:34:16.418Z,9.06
2023-02-11T21:36:45.218Z,8.97
2023-02-11T21:39:14.360Z,9.00
2023-02-11T21:41:42.289Z,9.15
2023-02-11T21:44:10.489Z,9.10
2023-02-11T21:46:38.509Z,9.08
2023-02-11T21:49:06.536Z,9.08
2023-02-11T21:51:34.370Z,9.03
2023-02-11T21:54:03.504Z,8.98
2023-02-11T21:56:34.230Z,8.89
2023-02-11T21:59:03.267Z,8.83
2023-02-11T22:01:35.562Z,8.80
2023-02-11T22:04:04.199Z,8.66
2023-02-11T22:06:34.185Z,8.63
2023-02-11T22:09:06.410Z,8.70
2023-02-11T22:11:34.967Z,8.73
2023-02-11T22:14:03.241Z,8.76
2023-02-11T22:16:31.724Z,8.83
2023-02-11T22:19:02.283Z,8.86
2023-02-11T22:21:30.463Z,8.85
2023-02-11T22:23:58.499Z,8.80
2023-02-11T22:26:27.751Z,8.73
2023-02-11T22:28:56.279Z,8.67
2023-02-11T22:31:29.813Z,8.65
2023-02-11T22:33:58.963Z,8.75
2023-02-11T22:36:31.351Z,8.75
2023-02-11T22:39:17.592Z,8.62
2023-02-11T22:41:47.783Z,8.63
2023-02-11T22:44:17.455Z,8.66
2023-02-11T22:46:45.822Z,8.71
2023-02-11T22:49:16.449Z,8.67
2023-02-11T22:51:46.344Z,8.67
2023-02-11T22:54:19.327Z,8.64
2023-02-11T22:56:51.395Z,8.63
2023-02-11T22:59:19.873Z,8.72
2023-02-11T23:01:48.830Z,8.74
2023-02-11T23:04:19.215Z,8.73
2023-02-11T23:06:47.783Z,8.83
2023-02-11T23:09:15.631Z,8.91
2023-02-11T23:11:44.122Z,9.04
2023-02-11T23:14:12.341Z,9.12
2023-02-11T23:16:40.245Z,9.18
2023-02-11T23:19:10.336Z,9.26
2023-02-11T23:21:39.345Z,9.11
2023-02-11T23:24:13.212Z,8.98
2023-02-11T23:26:43.817Z,8.96
2023-02-11T23:29:13.141Z,8.91
2023-02-11T23:31:46.176Z,8.85
2023-02-11T23:34:17.219Z,8.87
2023-02-11T23:36:45.182Z,8.89
2023-02-11T23:39:15.837Z,8.97
2023-02-11T23:41:44.970Z,9.01
2023-02-11T23:44:13.010Z,8.90
2023-02-11T23:46:41.142Z,8.83
2023-02-11T23:49:09.336Z,8.81
2023-02-11T23:51:37.200Z,8.85
2023-02-11T23:54:05.306Z,8.83
2023-02-11T23:56:33.318Z,8.86
2023-02-11T23:59:01.140Z,8.88
